Time;durP1;ratioP1;P1;durP2;ratioP2;P2;SDS_P1;SDS_P2;PMS_P1;PMS_P2;Temp;Humidity;BMP_temperature;BMP_pressure;BME280_temperature;BME280_humidity;BME280_pressure;Samples;Min_cycle;Max_cycle;Signal;HPM_P1;HPM_P2
2021/08/12 00:00:18;;;;;;;9.70;8.70;;;17.90;99.90;;;;;;5016044;28;20404;-89
2021/08/12 00:02:43;;;;;;;9.50;8.80;;;17.90;99.90;;;;;;5015711;28;20426;-88
2021/08/12 00:05:09;;;;;;;18.10;9.70;;;16.40;99.90;;;;;;5014683;28;20500;-90
2021/08/12 00:07:35;;;;;;;10.13;9.50;;;17.90;99.90;;;;;;5014419;28;20172;-89
2021/08/12 00:10:01;;;;;;;9.20;8.60;;;;;;;;;;5014655;28;20986;-89
2021/08/12 00:12:27;;;;;;;11.00;10.20;;;17.90;99.90;;;;;;5014519;28;20165;-89
2021/08/12 00:14:53;;;;;;;10.70;9.80;;;;;;;;;;5015692;28;20471;-89
2021/08/12 00:17:19;;;;;;;12.23;10.37;;;;;;;;;;5014019;28;20510;-89
2021/08/12 00:19:45;;;;;;;10.30;9.60;;;;;;;;;;5015546;28;20414;-89
2021/08/12 00:22:11;;;;;;;9.87;9.17;;;;;;;;;;5015151;28;20408;-89
2021/08/12 00:24:37;;;;;;;9.60;8.70;;;17.90;99.90;;;;;;5014256;28;20462;-89
2021/08/12 00:27:03;;;;;;;9.20;8.60;;;17.90;99.90;;;;;;5015437;28;20506;-90
2021/08/12 00:29:30;;;;;;;9.77;9.10;;;;;;;;;;5014023;28;20482;-89
2021/08/12 00:31:56;;;;;;;17.93;9.27;;;;;;;;;;5015375;28;20400;-89
2021/08/12 00:34:22;;;;;;;10.20;9.40;;;;;;;;;;5015282;28;20414;-90
2021/08/12 00:36:49;;;;;;;9.40;8.87;;;;;;;;;;5013952;28;20411;-90
2021/08/12 00:39:14;;;;;;;10.27;9.50;;;;;;;;;;5013899;28;20558;-90
2021/08/12 00:41:40;;;;;;;9.93;9.10;;;17.70;99.90;;;;;;5015143;28;21033;-90
2021/08/12 00:44:07;;;;;;;10.70;9.90;;;;;;;;;;5013706;28;20411;-90
2021/08/12 00:46:33;;;;;;;10.83;10.10;;;;;;;;;;5013668;28;20399;-88
2021/08/12 00:48:59;;;;;;;10.97;10.17;;;;;;;;;;5013709;28;20467;-89
2021/08/12 00:51:25;;;;;;;10.23;9.53;;;;;;;;;;5013752;28;20514;-89
2021/08/12 00:53:51;;;;;;;12.13;11.13;;;;;;;;;;5013672;28;20454;-89
2021/08/12 00:56:17;;;;;;;11.20;10.17;;;17.40;99.90;;;;;;5014732;28;20474;-89
2021/08/12 00:58:44;;;;;;;10.03;9.43;;;;;;;;;;5014937;28;20411;-89
2021/08/12 01:01:10;;;;;;;11.37;10.20;;;;;;;;;;5014788;28;20420;-89
2021/08/12 01:03:36;;;;;;;11.60;10.60;;;;;;;;;;5013588;28;20416;-89
2021/08/12 01:06:02;;;;;;;11.83;10.83;;;;;;;;;;5014668;28;20403;-90
2021/08/12 01:08:35;;;;;;;11.70;10.63;;;17.20;99.90;;;;;;5014766;28;21032;-89
2021/08/12 01:11:28;;;;;;;11.17;9.93;;;14.80;99.90;;;;;;5014923;28;20436;-88
2021/08/12 01:14:14;;;;;;;9.83;9.03;;;18.20;99.90;;;;;;5014254;28;20416;-89
2021/08/12 01:16:46;;;;;;;10.20;9.30;;;17.50;99.90;;;;;;5014228;28;20524;-88
2021/08/12 01:19:36;;;;;;;9.33;8.73;;;15.90;99.90;;;;;;5013123;28;20420;-88
2021/08/12 01:22:05;;;;;;;10.30;9.40;;;17.40;99.90;;;;;;5014368;28;20450;-89
2021/08/12 01:24:38;;;;;;;13.20;10.07;;;17.50;99.90;;;;;;5014244;28;20848;-88
2021/08/12 01:27:08;;;;;;;10.23;9.43;;;15.00;99.90;;;;;;5013051;28;20419;-88
2021/08/12 01:29:58;;;;;;;11.20;10.30;;;17.20;99.90;;;;;;5013092;28;20455;-89
2021/08/12 01:32:31;;;;;;;11.00;10.10;;;17.30;99.90;;;;;;5014050;28;20408;-90
2021/08/12 01:35:00;;;;;;;10.40;9.70;;;17.20;99.90;;;;;;5012036;28;20941;-89
2021/08/12 01:37:32;;;;;;;9.70;9.10;;;16.60;99.90;;;;;;5014086;28;20891;-91
2021/08/12 01:39:59;;;;;;;11.70;10.70;;;16.70;99.90;;;;;;5012948;28;20411;-90
2021/08/12 01:42:26;;;;;;;10.43;9.77;;;16.40;99.90;;;;;;5012712;28;20412;-89
2021/08/12 01:44:55;;;;;;;9.60;9.00;;;16.90;99.90;;;;;;5013879;28;20476;-89
2021/08/12 01:47:23;;;;;;;11.20;10.30;;;17.00;99.90;;;;;;5013014;28;20798;-89
2021/08/12 01:49:49;;;;;;;10.50;9.73;;;;;;;;;;5013790;28;20486;-89
2021/08/12 01:52:17;;;;;;;10.63;9.83;;;16.90;99.90;;;;;;5013955;28;20490;-89
2021/08/12 01:54:44;;;;;;;9.70;9.10;;;17.00;99.90;;;;;;5014035;28;20434;-89
2021/08/12 01:57:11;;;;;;;10.17;9.47;;;;;;;;;;5013542;28;20451;-89
2021/08/12 01:59:38;;;;;;;9.90;9.03;;;16.90;99.90;;;;;;5013733;28;20400;-89
2021/08/12 02:02:05;;;;;;;11.40;10.40;;;16.90;99.90;;;;;;5012430;28;20946;-88
2021/08/12 02:04:32;;;;;;;11.20;10.30;;;16.80;99.90;;;;;;5013449;28;20511;-89
2021/08/12 02:06:59;;;;;;;11.73;10.83;;;16.80;99.90;;;;;;5013448;28;20433;-89
2021/08/12 02:09:25;;;;;;;11.47;10.30;;;15.90;99.90;;;;;;5013626;28;20463;-89
2021/08/12 02:11:50;;;;;;;11.20;10.30;;;16.30;99.90;;;;;;5012205;28;20486;-89
2021/08/12 02:14:16;;;;;;;10.40;9.67;;;16.20;99.90;;;;;;5012172;28;20184;-89
2021/08/12 02:16:41;;;;;;;9.00;8.40;;;16.60;99.90;;;;;;5012069;28;20220;-89
2021/08/12 02:19:08;;;;;;;9.67;8.97;;;17.00;99.90;;;;;;5012177;28;20181;-89
2021/08/12 02:21:49;;;;;;;10.67;9.77;;;16.70;99.90;;;;;;5013654;28;20195;-89
2021/08/12 02:24:31;;;;;;;10.90;9.90;;;16.80;99.90;;;;;;5012301;28;20458;-89
2021/08/12 02:27:02;;;;;;;9.70;9.00;;;16.60;99.90;;;;;;5014808;28;20470;-89
2021/08/12 02:29:29;;;;;;;9.40;8.70;;;16.30;99.90;;;;;;5022026;28;20475;-89
2021/08/12 02:31:55;;;;;;;15.20;9.43;;;;;;;;;;5031687;28;20437;-90
2021/08/12 02:34:22;;;;;;;11.47;10.37;;;17.40;99.90;;;;;;5031943;28;20430;-89
2021/08/12 02:36:48;;;;;;;10.10;9.40;;;16.50;99.90;;;;;;5016712;28;20515;-89
2021/08/12 02:39:15;;;;;;;10.10;9.40;;;16.60;99.90;;;;;;5013165;28;20419;-89
2021/08/12 02:41:42;;;;;;;11.53;10.63;;;16.30;99.90;;;;;;5012368;28;20416;-89
2021/08/12 02:44:08;;;;;;;10.53;9.60;;;16.20;99.90;;;;;;5018648;28;20454;-89
2021/08/12 02:46:35;;;;;;;11.40;10.40;;;16.70;99.90;;;;;;5028110;28;20426;-89
2021/08/12 02:49:02;;;;;;;10.63;9.73;;;;;;;;;;5030840;28;20524;-89
2021/08/12 02:51:32;;;;;;;10.20;9.50;;;16.60;99.90;;;;;;5018637;28;20805;-90
2021/08/12 02:53:58;;;;;;;11.40;10.50;;;;;;;;;;5017266;28;20416;-89
2021/08/12 02:56:24;;;;;;;10.50;9.60;;;16.60;99.90;;;;;;5017706;28;20407;-89
2021/08/12 02:58:51;;;;;;;10.43;9.63;;;16.60;99.90;;;;;;5015904;28;20424;-89
2021/08/12 03:01:18;;;;;;;11.03;10.23;;;16.30;99.90;;;;;;5017415;28;20416;-90
2021/08/12 03:03:45;;;;;;;12.13;10.20;;;16.50;99.90;;;;;;5016925;28;20459;-90
2021/08/12 03:06:15;;;;;;;10.63;9.70;;;16.90;99.90;;;;;;5015558;28;20541;-89
2021/08/12 03:08:44;;;;;;;11.07;9.83;;;16.80;99.90;;;;;;5017381;28;20459;-89
2021/08/12 03:11:13;;;;;;;10.20;9.50;;;15.20;99.90;;;;;;5015707;28;20435;-89
2021/08/12 03:13:39;;;;;;;11.83;10.60;;;16.10;99.90;;;;;;5016672;28;20486;-89
2021/08/12 03:16:06;;;;;;;11.77;10.77;;;16.70;99.90;;;;;;5015481;28;20533;-88
2021/08/12 03:18:32;;;;;;;10.87;9.97;;;16.50;99.90;;;;;;5016875;28;20416;-89
2021/08/12 03:21:14;;;;;;;11.90;10.87;;;16.00;99.90;;;;;;5015440;28;20419;-89
2021/08/12 03:23:42;;;;;;;11.30;10.03;;;16.20;99.90;;;;;;5015598;28;20922;-88
2021/08/12 03:26:08;;;;;;;12.13;11.10;;;15.60;99.90;;;;;;5015480;28;20434;-88
2021/08/12 03:28:34;;;;;;;11.17;10.00;;;;;;;;;;5016530;28;20554;-89
2021/08/12 03:31:00;;;;;;;11.80;10.80;;;;;;;;;;5015493;28;20435;-89
2021/08/12 03:33:27;;;;;;;11.60;10.60;;;;;;;;;;5016855;28;20443;-89
2021/08/12 03:35:53;;;;;;;12.30;11.10;;;;;;;;;;5016772;28;20419;-89
2021/08/12 03:38:20;;;;;;;11.13;10.23;;;;;;;;;;5017172;28;20601;-89
2021/08/12 03:40:47;;;;;;;12.00;11.00;;;;;;;;;;5018145;28;20411;-89
2021/08/12 03:43:12;;;;;;;11.67;10.67;;;16.50;99.90;;;;;;5016544;28;20403;-89
2021/08/12 03:45:38;;;;;;;10.50;9.70;;;15.10;99.90;;;;;;5015091;28;20790;-89
2021/08/12 03:48:04;;;;;;;12.97;11.73;;;16.00;99.90;;;;;;5016705;28;20183;-88
2021/08/12 03:50:30;;;;;;;12.30;10.73;;;16.40;99.90;;;;;;5016278;28;20212;-89
2021/08/12 03:52:55;;;;;;;11.60;10.50;;;15.70;99.90;;;;;;5016122;28;20164;-89
2021/08/12 03:55:21;;;;;;;11.30;10.40;;;;;;;;;;5016237;28;20415;-89
2021/08/12 03:57:47;;;;;;;10.67;9.77;;;;;;;;;;5015396;28;20179;-90
2021/08/12 04:00:14;;;;;;;12.00;10.90;;;16.50;99.90;;;;;;5015072;28;20420;-90
2021/08/12 04:02:39;;;;;;;11.70;10.70;;;16.40;99.90;;;;;;5014872;28;20423;-89
2021/08/12 04:05:05;;;;;;;12.17;11.20;;;16.10;99.90;;;;;;5016064;28;20419;-88
2021/08/12 04:07:31;;;;;;;11.93;10.90;;;16.30;99.90;;;;;;5014995;28;20628;-89
2021/08/12 04:09:57;;;;;;;11.13;10.17;;;16.60;99.90;;;;;;5014989;28;20549;-88
2021/08/12 04:12:22;;;;;;;11.23;10.23;;;15.30;99.90;;;;;;5014940;28;20215;-89
2021/08/12 04:14:48;;;;;;;11.80;10.70;;;17.80;99.90;;;;;;5016478;28;20200;-89
2021/08/12 04:17:14;;;;;;;11.27;10.37;;;;;;;;;;5014559;28;20221;-88
2021/08/12 04:19:40;;;;;;;11.30;10.50;;;16.30;99.90;;;;;;5014915;28;20203;-90
2021/08/12 04:22:06;;;;;;;11.57;10.57;;;17.80;99.90;;;;;;5016269;28;20419;-89
2021/08/12 04:24:31;;;;;;;13.50;12.10;;;;;;;;;;5014678;28;20416;-88
2021/08/12 04:26:57;;;;;;;13.47;12.10;;;;;;;;;;5016066;28;20233;-89
2021/08/12 04:29:23;;;;;;;14.23;12.87;;;;;;;;;;5015252;28;20455;-87
2021/08/12 04:31:49;;;;;;;14.80;11.63;;;;;;;;;;5017573;28;20436;-89
2021/08/12 04:34:16;;;;;;;13.23;11.93;;;;;;;;;;5014708;28;20502;-89
2021/08/12 04:36:42;;;;;;;11.50;10.70;;;;;;;;;;5015042;28;20425;-90
2021/08/12 04:39:08;;;;;;;11.07;10.13;;;;;;;;;;5014501;28;20911;-89
2021/08/12 04:41:34;;;;;;;11.77;10.87;;;;;;;;;;5014502;28;20452;-90
2021/08/12 04:44:00;;;;;;;12.03;10.87;;;16.40;99.90;;;;;;5014039;28;20414;-90
2021/08/12 04:46:26;;;;;;;12.27;11.03;;;;;;;;;;5014828;28;20822;-90
2021/08/12 04:48:52;;;;;;;10.40;9.70;;;16.40;99.90;;;;;;5014787;28;20211;-87
2021/08/12 04:51:18;;;;;;;12.43;11.23;;;;;;;;;;5014725;28;20408;-89
2021/08/12 04:53:44;;;;;;;11.57;10.27;;;;;;;;;;5015204;28;20206;-89
2021/08/12 04:56:09;;;;;;;11.20;10.30;;;16.50;99.90;;;;;;5014551;28;20972;-89
2021/08/12 04:58:35;;;;;;;11.60;10.53;;;;;;;;;;5015960;28;20420;-89
2021/08/12 05:01:01;;;;;;;11.77;10.77;;;;;;;;;;5022770;28;20656;-90
2021/08/12 05:03:27;;;;;;;10.73;9.60;;;;;;;;;;5031586;28;20468;-89
2021/08/12 05:06:04;;;;;;;12.93;10.43;;;16.40;99.90;;;;;;5035755;28;20424;-89
2021/08/12 05:08:30;;;;;;;10.63;9.80;;;;;;;;;;5016531;28;20431;-89
2021/08/12 05:10:56;;;;;;;10.60;9.60;;;16.50;99.90;;;;;;4322742;28;10022393;-89
2021/08/12 05:13:22;;;;;;;11.80;10.80;;;16.00;99.90;;;;;;5012134;28;20184;-88
2021/08/12 05:15:47;;;;;;;11.03;10.13;;;16.00;99.90;;;;;;5013749;28;20399;-87
2021/08/12 05:18:13;;;;;;;10.80;9.67;;;;;;;;;;5011777;28;20243;-88
2021/08/12 05:20:39;;;;;;;11.63;10.73;;;;;;;;;;5013920;28;20422;-88
2021/08/12 05:23:05;;;;;;;12.77;11.60;;;;;;;;;;5012659;28;20780;-86
2021/08/12 05:25:31;;;;;;;12.53;11.43;;;16.30;99.90;;;;;;5011629;28;20493;-89
2021/08/12 05:27:57;;;;;;;13.37;11.83;;;;;;;;;;5013145;28;20420;-88
2021/08/12 05:30:24;;;;;;;13.10;11.80;;;;;;;;;;5011317;28;20471;-89
2021/08/12 05:32:50;;;;;;;12.93;11.60;;;;;;;;;;5012825;28;20427;-88
2021/08/12 05:35:16;;;;;;;11.70;10.70;;;;;;;;;;5011384;28;20422;-91
2021/08/12 05:37:41;;;;;;;11.00;10.10;;;16.50;99.90;;;;;;5013043;28;20442;-90
2021/08/12 05:40:08;;;;;;;11.20;10.37;;;16.30;99.90;;;;;;5012617;28;20463;-90
2021/08/12 05:42:33;;;;;;;10.77;9.77;;;17.00;99.90;;;;;;5012057;28;20216;-88
2021/08/12 05:44:59;;;;;;;9.87;9.07;;;17.10;99.90;;;;;;5013841;28;20459;-88
2021/08/12 05:47:24;;;;;;;15.07;9.37;;;18.70;99.90;;;;;;5013569;28;20200;-91
2021/08/12 05:49:50;;;;;;;8.67;8.00;;;18.10;98.30;;;;;;5013708;28;20216;-90
2021/08/12 05:52:15;;;;;;;11.10;9.40;;;18.70;95.50;;;;;;5012075;28;20219;-89
2021/08/12 05:54:41;;;;;;;10.87;9.80;;;;;;;;;;5010655;28;20188;-89
2021/08/12 05:57:07;;;;;;;11.37;10.30;;;19.00;93.50;;;;;;5013245;28;20260;-89
2021/08/12 05:59:33;;;;;;;10.50;9.63;;;18.00;93.80;;;;;;5000725;28;20526;-89
2021/08/12 06:01:58;;;;;;;10.93;9.80;;;19.80;95.40;;;;;;5009399;28;20216;-90
2021/08/12 06:04:24;;;;;;;12.33;11.33;;;18.10;95.10;;;;;;5010992;28;20183;-90
2021/08/12 06:06:50;;;;;;;10.80;9.97;;;;;;;;;;5013030;28;20640;-90
2021/08/12 06:09:18;;;;;;;11.23;10.40;;;;;;;;;;5011139;28;20216;-90
2021/08/12 06:11:44;;;;;;;10.97;9.97;;;;;;;;;;5010797;28;20527;-91
2021/08/12 06:14:10;;;;;;;10.50;9.57;;;;;;;;;;5010553;28;20479;-90
2021/08/12 06:16:36;;;;;;;11.60;10.60;;;;;;;;;;5011560;28;20594;-91
2021/08/12 06:19:02;;;;;;;13.60;9.47;;;;;;;;;;5012245;28;20490;-91
2021/08/12 06:21:28;;;;;;;9.83;9.23;;;22.10;80.20;;;;;;5012817;28;20526;-90
2021/08/12 06:23:54;;;;;;;10.50;9.70;;;;;;;;;;5019887;28;20511;-90
2021/08/12 06:26:20;;;;;;;9.93;9.20;;;;;;;;;;5023901;28;20177;-88
2021/08/12 06:28:46;;;;;;;10.27;9.47;;;;;;;;;;5028245;28;20519;-90
2021/08/12 06:31:13;;;;;;;10.50;9.73;;;23.50;69.90;;;;;;5027042;28;20517;-89
2021/08/12 06:33:39;;;;;;;11.33;10.60;;;;;;;;;;5017743;28;20411;-91
2021/08/12 06:36:05;;;;;;;13.27;11.30;;;;;;;;;;5017623;28;20242;-90
2021/08/12 06:38:31;;;;;;;12.13;11.10;;;;;;;;;;5013662;28;20737;-90
2021/08/12 06:40:57;;;;;;;12.03;11.13;;;;;;;;;;5013109;28;20414;-89
2021/08/12 06:43:23;;;;;;;11.40;10.50;;;;;;;;;;5010755;28;20503;-91
2021/08/12 06:45:49;;;;;;;11.67;10.70;;;;;;;;;;5002410;28;20443;-91
2021/08/12 06:48:15;;;;;;;13.27;11.10;;;;;;;;;;5014118;28;20415;-91
2021/08/12 06:50:41;;;;;;;11.43;10.60;;;;;;;;;;4997689;28;20471;-91
2021/08/12 06:53:06;;;;;;;12.93;11.30;;;23.00;71.20;;;;;;5003648;28;20414;-89
2021/08/12 06:55:32;;;;;;;13.73;10.57;;;22.20;69.70;;;;;;5015104;28;20860;-91
2021/08/12 06:57:58;;;;;;;12.03;10.87;;;23.00;70.50;;;;;;5013499;28;20253;-88
2021/08/12 07:00:24;;;;;;;12.37;11.30;;;23.90;71.40;;;;;;5013083;28;20193;-91
2021/08/12 07:02:52;;;;;;;16.47;12.17;;;;;;;;;;5016108;28;20194;-88
2021/08/12 07:05:18;;;;;;;10.67;9.77;;;23.70;68.50;;;;;;5015758;28;20422;-91
2021/08/12 07:07:45;;;;;;;11.70;10.87;;;24.10;68.70;;;;;;5015759;28;20420;-90
2021/08/12 07:10:13;;;;;;;12.77;11.00;;;26.30;70.40;;;;;;5023235;28;20478;-90
2021/08/12 07:12:39;;;;;;;11.57;10.77;;;;;;;;;;5015868;28;20736;-91
2021/08/12 07:15:05;;;;;;;12.83;11.53;;;25.00;79.10;;;;;;5015217;28;20427;-88
2021/08/12 07:17:32;;;;;;;11.13;10.03;;;25.10;62.30;;;;;;4664267;28;10000180;-94
2021/08/12 07:19:58;;;;;;;11.43;10.40;;;25.10;78.60;;;;;;5011118;28;20614;-89
2021/08/12 07:22:24;;;;;;;11.97;10.77;;;26.30;63.30;;;;;;5011741;28;20456;-88
2021/08/12 07:24:50;;;;;;;12.27;11.10;;;;;;;;;;5011830;28;20510;-88
2021/08/12 07:27:16;;;;;;;11.27;10.13;;;;;;;;;;5013457;28;20188;-90
2021/08/12 07:29:44;;;;;;;9.40;8.80;;;;;;;;;;5014634;28;20521;-90
2021/08/12 07:32:10;;;;;;;9.33;8.53;;;;;;;;;;5049272;28;20484;-91
2021/08/12 07:34:39;;;;;;;9.50;8.80;;;27.50;57.50;;;;;;5050249;28;20427;-90
2021/08/12 07:54:02;;;;;;;11.32;10.48;;;30.10;50.00;;;;;;5117539;27;20427;-88
2021/08/12 07:56:27;;;;;;;11.63;10.57;;;29.80;51.20;;;;;;5134209;28;20256;-90
2021/08/12 07:58:53;;;;;;;10.67;9.77;;;30.10;51.40;;;;;;5094917;28;20185;-89
2021/08/12 08:01:19;;;;;;;10.10;9.50;;;29.00;52.40;;;;;;5109982;28;20605;-89
2021/08/12 08:04:01;;;;;;;;;;;;;;;;;;;;;
2021/08/12 08:06:27;;;;;;;11.77;10.60;;;28.60;53.20;;;;;;5114397;28;20252;-93
2021/08/12 08:08:53;;;;;;;10.43;9.90;;;28.90;53.40;;;;;;5112073;28;20454;-84
2021/08/12 08:11:18;;;;;;;11.03;10.20;;;28.80;51.80;;;;;;5111784;28;20224;-90
2021/08/12 08:13:44;;;;;;;10.40;9.70;;;31.10;52.10;;;;;;5113066;28;20184;-90
2021/08/12 08:16:10;;;;;;;11.00;10.10;;;31.20;49.80;;;;;;5112058;28;20534;-90
2021/08/12 08:18:36;;;;;;;10.30;9.50;;;32.90;48.20;;;;;;5114668;28;20302;-92
2021/08/12 08:21:11;;;;;;;12.35;11.54;;;31.10;49.20;;;;;;5070009;27;10001379;-91
2021/08/12 08:23:37;;;;;;;12.03;11.23;;;30.70;49.60;;;;;;5089861;28;20544;-90
2021/08/12 08:26:02;;;;;;;11.07;10.17;;;30.60;49.40;;;;;;5092142;28;20249;-90
2021/08/12 08:28:28;;;;;;;13.03;11.87;;;34.20;51.10;;;;;;5092151;28;20430;-88
2021/08/12 08:30:54;;;;;;;11.33;10.50;;;30.20;49.50;;;;;;5092420;28;20636;-87
2021/08/12 08:33:19;;;;;;;11.20;10.17;;;30.00;50.30;;;;;;5092723;28;20174;-91
2021/08/12 08:35:45;;;;;;;11.03;10.30;;;29.30;50.60;;;;;;5093455;28;20167;-84
2021/08/12 08:38:10;;;;;;;11.47;10.47;;;31.20;50.30;;;;;;5094073;28;20525;-88
2021/08/12 08:40:36;;;;;;;12.07;11.20;;;31.50;49.00;;;;;;5097255;28;20174;-90
2021/08/12 08:43:02;;;;;;;11.40;10.60;;;31.10;48.00;;;;;;5093370;28;20198;-90
2021/08/12 08:45:28;;;;;;;12.83;11.83;;;31.50;47.50;;;;;;5094896;28;20174;-91
2021/08/12 08:47:56;;;;;;;10.80;9.90;;;32.70;46.30;;;;;;5114592;28;20273;-93
2021/08/12 08:50:26;;;;;;;10.73;10.00;;;33.00;45.10;;;;;;5107503;28;20431;-92
2021/08/12 08:52:55;;;;;;;11.53;10.10;;;34.30;44.70;;;;;;5108279;28;20475;-92
2021/08/12 08:55:25;;;;;;;8.90;8.30;;;35.00;42.70;;;;;;5114047;28;20922;-94
2021/08/12 08:57:59;;;;;;;9.10;8.40;;;35.70;42.30;;;;;;5113111;28;20419;-88
2021/08/12 09:00:32;;;;;;;8.27;7.87;;;35.60;41.20;;;;;;5115199;28;20420;-87
2021/08/12 09:02:57;;;;;;;13.17;12.07;;;35.40;39.80;;;;;;5113088;28;20466;-92
2021/08/12 09:05:23;;;;;;;9.40;8.90;;;36.30;41.40;;;;;;5099527;28;20510;-88
2021/08/12 09:07:50;;;;;;;9.60;8.90;;;34.60;41.70;;;;;;5099988;28;20181;-89
2021/08/12 09:10:17;;;;;;;9.77;9.17;;;33.70;40.80;;;;;;5098118;28;20825;-91
2021/08/12 09:12:44;;;;;;;9.13;8.63;;;36.00;41.20;;;;;;5101503;28;20925;-91
2021/08/12 09:15:20;;;;;;;9.80;9.20;;;35.30;40.20;;;;;;5094649;28;20429;-89
2021/08/12 09:17:50;;;;;;;9.77;9.10;;;35.20;39.90;;;;;;5097252;28;20423;-89
2021/08/12 09:20:26;;;;;;;8.23;7.83;;;36.00;40.60;;;;;;5080733;28;20555;-86
2021/08/12 09:23:02;;;;;;;9.30;8.70;;;35.60;39.50;;;;;;5098699;28;20773;-89
2021/08/12 09:25:48;;;;;;;9.20;8.70;;;36.10;39.40;;;;;;5098074;28;20373;-88
2021/08/12 09:28:20;;;;;;;9.68;8.88;;;35.70;40.40;;;;;;5097107;28;20455;-91
2021/08/12 09:30:45;;;;;;;8.17;7.67;;;35.00;38.80;;;;;;5098955;28;20246;-91
2021/08/12 09:33:17;;;;;;;9.53;8.73;;;35.40;38.70;;;;;;5097248;28;20418;-92
2021/08/12 09:35:44;;;;;;;8.43;7.93;;;35.70;38.60;;;;;;5100115;28;20180;-88
2021/08/12 09:38:12;;;;;;;10.27;9.40;;;35.70;39.10;;;;;;5095994;28;20397;-87
2021/08/12 09:40:39;;;;;;;7.63;7.30;;;35.50;38.00;;;;;;5096339;28;20173;-88
2021/08/12 09:43:06;;;;;;;8.25;7.65;;;36.30;39.20;;;;;;5096817;28;20463;-87
2021/08/12 09:45:33;;;;;;;7.83;7.20;;;36.10;37.50;;;;;;5098296;28;20203;-88
2021/08/12 09:48:18;;;;;;;8.17;7.57;;;36.10;37.30;;;;;;5092202;28;20927;-89
2021/08/12 09:50:58;;;;;;;8.33;7.83;;;36.60;36.80;;;;;;5079080;28;20535;-91
2021/08/12 09:53:26;;;;;;;8.40;7.90;;;37.00;36.60;;;;;;5079582;28;20524;-89
2021/08/12 09:55:52;;;;;;;7.10;6.70;;;38.10;37.30;;;;;;5087284;28;20426;-89
2021/08/12 09:58:18;;;;;;;7.83;7.40;;;37.00;36.30;;;;;;5079528;28;20406;-92
2021/08/12 10:00:46;;;;;;;7.20;6.77;;;37.20;36.00;;;;;;5095884;28;20788;-88
2021/08/12 10:03:37;;;;;;;7.87;7.40;;;37.30;35.80;;;;;;5103081;28;21001;-89
2021/08/12 10:06:05;;;;;;;6.77;6.23;;;37.20;35.30;;;;;;5103024;28;20412;-91
2021/08/12 10:08:36;;;;;;;6.97;6.50;;;37.20;35.20;;;;;;5099240;28;20476;-89
2021/08/12 10:11:23;;;;;;;7.90;7.37;;;37.30;35.80;;;;;;5100093;28;20407;-89
2021/08/12 10:13:53;;;;;;;7.23;6.63;;;36.80;34.50;;;;;;5097649;28;20510;-85
2021/08/12 10:16:20;;;;;;;7.23;6.80;;;37.30;35.50;;;;;;5097600;28;20396;-87
2021/08/12 10:18:48;;;;;;;8.00;7.47;;;37.60;34.80;;;;;;5101603;28;20416;-88
2021/08/12 10:21:16;;;;;;;6.60;6.07;;;37.80;36.20;;;;;;5098417;28;20407;-91
2021/08/12 10:23:45;;;;;;;6.30;5.93;;;37.70;35.10;;;;;;5097361;28;20452;-90
2021/08/12 10:26:15;;;;;;;6.50;6.20;;;38.30;34.50;;;;;;5097634;28;20412;-92
2021/08/12 10:28:48;;;;;;;6.80;6.43;;;40.40;35.00;;;;;;5098660;28;20422;-87
2021/08/12 10:31:22;;;;;;;6.57;6.27;;;38.60;33.60;;;;;;5097902;28;20504;-86
2021/08/12 10:33:49;;;;;;;6.27;5.97;;;38.20;37.00;;;;;;5096591;28;20420;-86
2021/08/12 10:36:17;;;;;;;6.20;6.00;;;36.70;33.80;;;;;;5097155;28;20419;-90
2021/08/12 10:38:43;;;;;;;6.23;5.93;;;37.00;33.90;;;;;;5098713;28;20408;-89
2021/08/12 10:41:15;;;;;;;5.50;5.40;;;38.00;35.60;;;;;;5096058;28;20416;-90
2021/08/12 10:43:41;;;;;;;5.87;5.67;;;36.90;34.60;;;;;;5099182;28;20974;-86
2021/08/12 10:46:07;;;;;;;5.90;5.40;;;36.90;33.90;;;;;;5099525;28;20794;-84
2021/08/12 10:48:35;;;;;;;5.50;5.30;;;36.70;34.30;;;;;;5098750;28;20577;-89
2021/08/12 10:51:14;;;;;;;6.20;6.00;;;36.60;34.10;;;;;;5096931;28;20170;-92
2021/08/12 10:53:44;;;;;;;8.60;8.00;;;36.70;33.50;;;;;;5098678;28;20463;-88
2021/08/12 10:56:18;;;;;;;6.97;4.70;;;37.10;33.10;;;;;;5098682;28;20404;-87
2021/08/12 10:58:46;;;;;;;7.40;6.80;;;37.70;32.70;;;;;;5102619;28;20499;-93
2021/08/12 11:01:30;;;;;;;5.83;5.60;;;36.70;32.70;;;;;;5098313;28;20412;-91
2021/08/12 11:04:01;;;;;;;5.53;5.23;;;36.50;32.40;;;;;;5099522;28;20571;-88
2021/08/12 11:06:38;;;;;;;5.43;5.23;;;36.60;33.50;;;;;;5100106;28;20416;-90
2021/08/12 11:09:07;;;;;;;5.47;5.27;;;35.80;33.70;;;;;;5097070;28;20422;-92
2021/08/12 11:11:33;;;;;;;5.23;5.10;;;34.80;35.70;;;;;;5081639;28;20424;-92
2021/08/12 11:14:14;;;;;;;4.70;4.50;;;34.90;35.30;;;;;;5102124;28;20462;-91
2021/08/12 11:16:42;;;;;;;4.63;4.43;;;34.60;34.30;;;;;;5100635;28;20491;-90
2021/08/12 11:19:39;;;;;;;5.63;5.33;;;33.40;35.20;;;;;;5098856;28;20961;-87
2021/08/12 11:22:26;;;;;;;5.13;4.93;;;35.10;34.90;;;;;;5094042;28;20447;-91
2021/08/12 11:24:52;;;;;;;6.60;6.20;;;32.60;35.20;;;;;;5103190;28;20412;-88
2021/08/12 11:27:33;;;;;;;6.10;5.80;;;32.30;36.30;;;;;;5100751;28;20463;-89
2021/08/12 11:30:18;;;;;;;7.17;6.43;;;31.60;36.70;;;;;;5095733;28;20679;-90
2021/08/12 11:33:22;;;;;;;7.00;6.37;;;33.60;37.40;;;;;;5096745;28;20894;-86
2021/08/12 11:36:11;;;;;;;17.60;9.40;;;31.50;37.00;;;;;;5096095;28;20476;-87
2021/08/12 11:38:40;;;;;;;7.17;6.77;;;31.20;37.70;;;;;;5096363;28;20416;-88
2021/08/12 11:41:06;;;;;;;7.97;7.47;;;31.60;38.10;;;;;;5096376;28;20408;-87
2021/08/12 11:43:33;;;;;;;7.00;6.70;;;32.70;38.80;;;;;;5099051;28;20495;-87
2021/08/12 11:46:00;;;;;;;8.23;7.60;;;30.90;38.10;;;;;;5094689;28;20190;-85
2021/08/12 11:48:31;;;;;;;8.13;7.30;;;30.70;38.80;;;;;;5097216;28;20531;-88
2021/08/12 11:51:00;;;;;;;7.60;7.10;;;32.40;40.30;;;;;;5094886;28;20404;-89
2021/08/12 11:53:54;;;;;;;8.93;8.20;;;29.70;40.50;;;;;;5101374;28;20559;-92
2021/08/12 11:56:26;;;;;;;8.33;7.90;;;29.80;40.60;;;;;;5097876;28;20399;-90
2021/08/12 11:58:57;;;;;;;8.73;8.13;;;27.40;38.80;;;;;;5097455;28;20518;-89
2021/08/12 12:01:31;;;;;;;8.00;7.33;;;29.60;40.30;;;;;;5099356;28;20400;-91
2021/08/12 12:04:02;;;;;;;7.67;7.00;;;29.60;41.10;;;;;;5098329;28;20466;-92
2021/08/12 12:06:35;;;;;;;7.43;6.83;;;29.30;40.80;;;;;;5097995;28;21167;-90
2021/08/12 12:09:31;;;;;;;7.80;7.40;;;29.20;41.20;;;;;;5097702;28;20413;-90
2021/08/12 12:12:06;;;;;;;6.87;6.57;;;29.10;40.80;;;;;;5095330;28;20244;-89
2021/08/12 12:14:35;;;;;;;7.80;7.30;;;28.80;41.70;;;;;;5096274;28;20480;-91
2021/08/12 12:17:17;;;;;;;7.10;6.50;;;28.70;42.60;;;;;;4393112;28;10000780;-90
2021/08/12 12:20:03;;;;;;;8.23;7.67;;;28.60;42.70;;;;;;5090189;28;20445;-92
2021/08/12 12:22:35;;;;;;;7.33;6.93;;;28.50;43.20;;;;;;5089988;28;20506;-90
2021/08/12 12:25:07;;;;;;;8.40;7.67;;;30.00;43.40;;;;;;5097697;28;20781;-93
2021/08/12 12:27:33;;;;;;;7.90;7.43;;;28.20;42.40;;;;;;5099160;28;20442;-91
2021/08/12 12:30:10;;;;;;;14.67;7.13;;;28.60;43.70;;;;;;5096596;28;20411;-88
2021/08/12 12:32:38;;;;;;;7.10;6.80;;;28.80;42.50;;;;;;5095360;28;20409;-85
2021/08/12 12:35:07;;;;;;;8.53;7.73;;;28.80;42.10;;;;;;5098707;28;20416;-87
2021/08/12 12:37:39;;;;;;;7.33;6.77;;;28.70;41.90;;;;;;5095044;28;20434;-88
2021/08/12 12:40:08;;;;;;;7.47;7.00;;;28.70;42.30;;;;;;5098605;28;20432;-87
2021/08/12 12:42:36;;;;;;;7.83;7.13;;;28.50;42.30;;;;;;5098110;28;20489;-91
2021/08/12 12:45:10;;;;;;;8.17;7.57;;;28.50;42.50;;;;;;5096341;28;20426;-91
2021/08/12 12:47:37;;;;;;;8.03;7.47;;;28.70;42.60;;;;;;5098223;28;20590;-90
2021/08/12 12:50:09;;;;;;;8.30;7.63;;;28.70;42.00;;;;;;5098071;28;20479;-88
2021/08/12 12:52:36;;;;;;;9.93;8.30;;;28.70;42.40;;;;;;5095554;28;20509;-90
2021/08/12 12:55:16;;;;;;;8.50;7.97;;;29.30;43.10;;;;;;5097637;28;20408;-90
2021/08/12 12:57:42;;;;;;;8.53;8.03;;;28.90;42.60;;;;;;5095317;28;20439;-90
2021/08/12 13:00:09;;;;;;;8.97;8.37;;;29.10;42.70;;;;;;5098765;28;20412;-91
2021/08/12 13:02:34;;;;;;;11.07;9.93;;;29.10;42.50;;;;;;5099750;28;20213;-89
2021/08/12 13:05:03;;;;;;;7.77;7.27;;;29.40;43.30;;;;;;5082297;28;20526;-90
2021/08/12 13:07:28;;;;;;;7.33;6.63;;;29.70;42.90;;;;;;5082961;28;20196;-88
2021/08/12 13:09:54;;;;;;;7.20;6.80;;;29.90;41.00;;;;;;5103844;28;20424;-91
2021/08/12 13:12:31;;;;;;;6.80;6.33;;;28.40;39.60;;;;;;5107516;28;20161;-92
2021/08/12 13:15:25;;;;;;;6.43;6.13;;;31.20;40.30;;;;;;5106755;28;20172;-90
2021/08/12 13:18:05;;;;;;;6.20;5.80;;;30.40;39.20;;;;;;5104327;28;20424;-92
2021/08/12 13:20:46;;;;;;;6.40;5.80;;;32.20;40.70;;;;;;5109466;28;20473;-88
2021/08/12 13:23:12;;;;;;;6.67;6.27;;;32.00;40.80;;;;;;5109362;28;20467;-88
2021/08/12 13:25:40;;;;;;;6.17;5.80;;;29.40;40.40;;;;;;5109681;28;20434;-89
2021/08/12 13:28:06;;;;;;;5.33;5.23;;;29.30;39.60;;;;;;5104765;28;20423;-90